Time;durP1;ratioP1;P1;durP2;ratioP2;P2;SDS_P1;SDS_P2;PMS_P1;PMS_P2;Temp;Humidity;BMP_temperature;BMP_pressure;BME280_temperature;BME280_humidity;BME280_pressure;Samples;Min_cycle;Max_cycle;Signal;HPM_P1;HPM_P2
2021/11/24 00:01:09;;;;;;;30.53;16.17;;;;;;;4.59;100.00;101749.16;5042561;28;20261;-78
2021/11/24 00:03:35;;;;;;;29.37;16.67;;;;;;;4.59;100.00;101749.16;5045596;28;20227;-79
2021/11/24 00:06:01;;;;;;;30.13;17.00;;;;;;;4.59;100.00;101752.63;5041845;28;20314;-78
2021/11/24 00:08:28;;;;;;;30.80;16.13;;;;;;;4.58;100.00;101748.31;5043586;28;20203;-79
2021/11/24 00:10:54;;;;;;;33.00;15.97;;;;;;;4.58;100.00;101744.84;5041602;28;20671;-79
2021/11/24 00:13:21;;;;;;;31.07;17.30;;;;;;;4.56;100.00;101737.09;5042936;28;20227;-78
2021/11/24 00:15:47;;;;;;;31.53;16.00;;;;;;;4.55;100.00;101736.19;5042219;28;20246;-79
2021/11/24 00:18:15;;;;;;;29.53;15.23;;;;;;;4.55;100.00;101735.31;5043410;28;20199;-79
2021/11/24 00:20:41;;;;;;;32.03;16.27;;;;;;;4.54;100.00;101737.06;5041853;28;20206;-79
2021/11/24 00:23:08;;;;;;;30.30;14.87;;;;;;;4.54;100.00;101737.06;5045390;28;20705;-79
2021/11/24 00:25:34;;;;;;;34.67;16.10;;;;;;;4.54;100.00;101734.47;5038487;28;20207;-79
2021/11/24 00:28:00;;;;;;;31.17;15.33;;;;;;;4.55;100.00;101728.44;5044381;28;20208;-79
2021/11/24 00:30:27;;;;;;;27.90;15.67;;;;;;;4.55;100.00;101733.59;5041638;28;20237;-79
2021/11/24 00:32:55;;;;;;;30.87;15.67;;;;;;;4.54;100.00;101738.78;5041620;28;21190;-79
2021/11/24 00:35:23;;;;;;;32.37;16.67;;;;;;;4.55;100.00;101725.00;5042940;28;20417;-78
2021/11/24 00:37:49;;;;;;;32.30;16.30;;;;;;;4.52;100.00;101723.25;5043094;28;20207;-78
2021/11/24 00:40:16;;;;;;;29.67;15.23;;;;;;;4.53;100.00;101726.69;5039213;28;20303;-79
2021/11/24 00:42:42;;;;;;;33.43;16.43;;;;;;;4.52;100.00;101730.09;5042842;28;20232;-78
2021/11/24 00:45:09;;;;;;;32.67;16.00;;;;;;;4.53;100.00;101739.59;5043157;28;20196;-78
2021/11/24 00:47:36;;;;;;;33.20;15.53;;;;;;;4.54;100.00;101738.78;5041924;28;20313;-79
2021/11/24 00:50:02;;;;;;;30.23;15.83;;;;;;;4.53;100.00;101734.44;5043740;28;20234;-79
2021/11/24 00:52:30;;;;;;;29.80;16.17;;;;;;;4.53;100.00;101732.72;5034409;28;20236;-79
2021/11/24 00:54:57;;;;;;;31.90;16.83;;;;;;;4.54;100.00;101728.44;5042510;28;20201;-79
2021/11/24 00:57:24;;;;;;;36.50;17.37;;;;;;;4.53;100.00;101729.28;5043548;28;20207;-79
2021/11/24 00:59:50;;;;;;;31.87;17.30;;;;;;;4.53;100.00;101737.03;5043016;28;20221;-79
2021/11/24 01:02:16;;;;;;;27.97;14.70;;;;;;;4.53;100.00;101732.72;5043122;28;20235;-78
2021/11/24 01:04:43;;;;;;;33.20;15.93;;;;;;;4.54;100.00;101729.31;5041484;28;20577;-79
2021/11/24 01:07:09;;;;;;;33.37;16.67;;;;;;;4.53;100.00;101727.56;5041013;28;20214;-78
2021/11/24 01:09:37;;;;;;;34.97;15.93;;;;;;;4.54;100.00;101731.88;5043430;28;20202;-78
2021/11/24 01:12:04;;;;;;;32.67;16.17;;;;;;;4.54;100.00;101726.72;5039697;28;20230;-78
2021/11/24 01:14:31;;;;;;;28.63;15.80;;;;;;;4.54;100.00;101731.03;5043449;28;20199;-78
2021/11/24 01:16:57;;;;;;;34.13;16.90;;;;;;;4.54;100.00;101726.72;5040357;28;20213;-77
2021/11/24 01:19:24;;;;;;;31.77;15.77;;;;;;;4.54;100.00;101726.72;5042026;28;20207;-76
2021/11/24 01:21:51;;;;;;;33.50;16.83;;;;;;;4.53;100.00;101724.97;5039313;28;20417;-77
2021/11/24 01:24:17;;;;;;;31.33;16.27;;;;;;;4.55;100.00;101725.00;5043819;28;20311;-77
2021/11/24 01:26:45;;;;;;;31.33;15.93;;;;;;;4.54;100.00;101726.72;5040558;28;20590;-77
2021/11/24 01:29:11;;;;;;;34.17;16.47;;;;;;;4.55;100.00;101722.41;5042658;28;20280;-77
2021/11/24 01:31:38;;;;;;;32.53;16.20;;;;;;;4.54;100.00;101720.69;5039650;28;20595;-76
2021/11/24 01:34:05;;;;;;;33.50;16.73;;;;;;;4.53;100.00;101719.81;5041656;28;21924;-76
2021/11/24 01:36:32;;;;;;;36.77;17.27;;;;;;;4.55;100.00;101717.25;5026080;28;20294;-77
2021/11/24 01:38:58;;;;;;;35.40;16.53;;;;;;;4.55;100.00;101717.25;5041159;28;20207;-76
2021/11/24 01:41:24;;;;;;;33.53;17.37;;;;;;;4.55;100.00;101717.25;5039052;28;20608;-76
2021/11/24 01:43:52;;;;;;;34.50;16.13;;;;;;;4.55;100.00;101707.78;5041809;28;20228;-76
2021/11/24 01:46:18;;;;;;;36.87;17.23;;;;;;;4.55;100.00;101709.50;5038975;28;20888;-77
2021/11/24 01:48:45;;;;;;;35.33;17.30;;;;;;;4.53;100.00;101709.47;5040994;28;20469;-77
2021/11/24 01:51:11;;;;;;;36.27;17.13;;;;;;;4.53;100.00;101704.31;5040806;28;20593;-77
2021/11/24 01:53:38;;;;;;;33.80;16.10;;;;;;;4.54;100.00;101702.63;5040567;28;20225;-76
2021/11/24 01:56:04;;;;;;;36.67;16.80;;;;;;;4.54;100.00;101700.03;5043169;28;20204;-77
2021/11/24 01:58:32;;;;;;;34.83;16.50;;;;;;;4.53;100.00;101708.63;5041320;28;20218;-77
2021/11/24 02:01:00;;;;;;;38.83;17.03;;;;;;;4.52;100.00;101705.16;5041151;28;20291;-77
2021/11/24 02:03:27;;;;;;;33.03;16.70;;;;;;;4.51;100.00;101698.25;5039587;28;20223;-76
2021/11/24 02:05:53;;;;;;;33.63;17.07;;;;;;;4.54;100.00;101700.03;5040865;28;20249;-77
2021/11/24 02:08:20;;;;;;;35.27;16.53;;;;;;;4.54;100.00;101706.06;5039195;28;20196;-76
2021/11/24 02:10:46;;;;;;;34.70;16.83;;;;;;;4.54;100.00;101702.63;5041111;28;20222;-76
2021/11/24 02:13:13;;;;;;;34.37;17.20;;;;;;;4.53;100.00;101703.44;5042367;28;20238;-77
2021/11/24 02:15:40;;;;;;;36.70;17.53;;;;;;;4.55;100.00;101694.84;5041984;28;20203;-77
2021/11/24 02:18:09;;;;;;;35.90;17.93;;;;;;;4.53;100.00;101691.38;5038326;28;20210;-77
2021/11/24 02:20:41;;;;;;;33.30;15.63;;;;;;;4.55;100.00;101696.59;5041667;28;20482;-76
2021/11/24 02:23:10;;;;;;;38.60;17.00;;;;;;;4.54;100.00;101693.16;5039231;28;20231;-77
2021/11/24 02:25:37;;;;;;;40.60;18.10;;;;;;;4.55;100.00;101691.41;5042281;28;20207;-77
2021/11/24 02:28:04;;;;;;;41.50;16.67;;;;;;;4.55;100.00;101694.00;5038927;28;20212;-77
2021/11/24 02:30:31;;;;;;;40.00;17.07;;;;;;;4.55;100.00;101683.66;5041330;28;20229;-78
2021/11/24 02:32:58;;;;;;;41.10;18.10;;;;;;;4.54;100.00;101687.13;5039795;28;20227;-76
2021/11/24 02:35:24;;;;;;;41.77;16.97;;;;;;;4.52;100.00;101681.94;5040917;28;20234;-79
2021/11/24 02:37:52;;;;;;;41.07;17.77;;;;;;;4.52;100.00;101674.19;5040144;28;20207;-79
2021/11/24 02:40:18;;;;;;;37.23;16.20;;;;;;;4.53;100.00;101675.03;5041238;28;20199;-79
2021/11/24 02:42:45;;;;;;;35.33;16.83;;;;;;;4.50;100.00;101670.69;5040574;28;20223;-77
2021/11/24 02:45:12;;;;;;;38.50;16.67;;;;;;;4.51;100.00;101671.56;5040638;28;20574;-76
2021/11/24 02:47:39;;;;;;;39.07;17.60;;;;;;;4.50;100.00;101674.97;5040564;28;20719;-76
2021/11/24 02:50:07;;;;;;;43.93;17.37;;;;;;;4.51;100.00;101676.72;5040383;28;20201;-77
2021/11/24 02:52:34;;;;;;;35.67;16.73;;;;;;;4.51;100.00;101671.56;5039148;28;20234;-76
2021/11/24 02:55:04;;;;;;;31.87;15.27;;;;;;;4.49;100.00;101670.69;5038062;28;20207;-77
2021/11/24 02:57:32;;;;;;;35.20;15.57;;;;;;;4.49;100.00;101670.69;5040363;28;20207;-77
2021/11/24 02:59:58;;;;;;;36.33;16.10;;;;;;;4.48;100.00;101674.94;5038919;28;20290;-77
2021/11/24 03:02:26;;;;;;;36.83;15.40;;;;;;;4.47;100.00;101664.63;5039385;28;20226;-78
2021/11/24 03:04:53;;;;;;;30.77;14.33;;;;;;;4.46;100.00;101668.03;5037708;28;20253;-77
2021/11/24 03:07:19;;;;;;;34.93;15.47;;;;;;;4.45;100.00;101666.28;5044046;28;20591;-77
2021/11/24 03:09:45;;;;;;;34.00;15.13;;;;;;;4.44;100.00;101665.44;5041825;28;20213;-77
2021/11/24 03:12:13;;;;;;;36.73;15.60;;;;;;;4.44;100.00;101664.56;5044760;28;20254;-77
2021/11/24 03:14:41;;;;;;;33.23;14.47;;;;;;;4.43;100.00;101667.97;5040970;28;20210;-77
2021/11/24 03:17:07;;;;;;;38.77;16.13;;;;;;;4.43;100.00;101655.06;5045911;28;20264;-77
2021/11/24 03:19:34;;;;;;;34.23;15.10;;;;;;;4.42;100.00;101661.97;5042565;28;20573;-77
2021/11/24 03:22:00;;;;;;;37.53;15.83;;;;;;;4.41;100.00;101657.63;5045493;28;20223;-77
2021/11/24 03:24:26;;;;;;;38.70;15.70;;;;;;;4.41;100.00;101656.75;5042555;28;20421;-79
2021/11/24 03:26:53;;;;;;;31.33;15.50;;;;;;;4.41;100.00;101651.59;5045309;28;20212;-79
2021/11/24 03:29:21;;;;;;;37.53;15.43;;;;;;;4.39;100.00;101659.31;5043808;28;20714;-79
2021/11/24 03:31:47;;;;;;;37.10;16.93;;;;;;;4.39;100.00;101653.28;5042220;28;20231;-77
2021/11/24 03:34:13;;;;;;;38.63;16.33;;;;;;;4.38;100.00;101646.38;5043165;28;20211;-76
2021/11/24 03:36:40;;;;;;;38.27;16.47;;;;;;;4.39;100.00;101646.41;5036399;28;20225;-77
2021/11/24 03:39:07;;;;;;;40.33;15.93;;;;;;;4.38;100.00;101651.53;5042310;28;20684;-77
2021/11/24 03:41:33;;;;;;;38.53;16.27;;;;;;;4.38;100.00;101655.03;5042276;28;20202;-76
2021/11/24 03:44:00;;;;;;;38.47;15.40;;;;;;;4.37;100.00;101648.09;5044095;28;20195;-78
2021/11/24 03:46:28;;;;;;;34.27;15.23;;;;;;;4.36;100.00;101644.66;5044133;28;20192;-78
2021/11/24 03:48:54;;;;;;;42.90;17.43;;;;;;;4.37;100.00;101642.94;5044599;28;20617;-79
2021/11/24 03:51:20;;;;;;;40.67;16.50;;;;;;;4.37;100.00;101642.94;5040918;28;20694;-79
2021/11/24 03:53:47;;;;;;;42.23;16.13;;;;;;;4.38;100.00;101644.69;5044942;28;21022;-77
2021/11/24 03:56:14;;;;;;;41.90;17.03;;;;;;;4.36;100.00;101642.09;5041098;28;20547;-77
2021/11/24 03:58:40;;;;;;;37.80;16.23;;;;;;;4.38;100.00;101634.34;5041839;28;20214;-77
2021/11/24 04:01:07;;;;;;;40.97;16.70;;;;;;;4.36;100.00;101636.03;5041126;28;20677;-77
2021/11/24 04:03:35;;;;;;;40.90;17.50;;;;;;;4.35;100.00;101632.59;5043820;28;20317;-77
2021/11/24 04:06:01;;;;;;;44.23;16.20;;;;;;;4.36;100.00;101623.13;5039683;28;20206;-77
2021/11/24 04:08:28;;;;;;;37.63;15.60;;;;;;;4.36;100.00;101628.28;5044610;28;20195;-77
2021/11/24 04:10:54;;;;;;;40.63;16.83;;;;;;;4.35;100.00;101627.41;5040451;28;20214;-77
2021/11/24 04:13:21;;;;;;;37.23;16.20;;;;;;;4.35;100.00;101626.56;5044009;28;20310;-77
2021/11/24 04:15:47;;;;;;;38.73;17.23;;;;;;;4.35;100.00;101624.84;5041638;28;20207;-78
2021/11/24 04:18:13;;;;;;;40.97;16.93;;;;;;;4.34;100.00;101624.81;5042844;28;20199;-77
2021/11/24 04:20:41;;;;;;;39.20;17.03;;;;;;;4.35;100.00;101621.41;5040968;28;20200;-77
2021/11/24 04:23:08;;;;;;;41.20;16.40;;;;;;;4.32;100.00;101627.38;5039200;28;20335;-76
2021/11/24 04:25:34;;;;;;;40.40;17.23;;;;;;;4.33;100.00;101633.41;5026168;28;20210;-77
2021/11/24 04:28:01;;;;;;;38.87;15.93;;;;;;;4.36;100.00;101636.03;5044557;28;20210;-76
2021/11/24 04:30:27;;;;;;;41.10;16.63;;;;;;;4.33;100.00;101631.69;5041142;28;20206;-79
2021/11/24 04:32:54;;;;;;;37.07;15.10;;;;;;;4.34;100.00;101623.13;5043822;28;20657;-77
2021/11/24 04:35:20;;;;;;;35.13;15.80;;;;;;;4.33;100.00;101623.94;5041829;28;20203;-77
2021/11/24 04:37:49;;;;;;;42.97;17.03;;;;;;;4.33;100.00;101623.94;5042945;28;20777;-77
2021/11/24 04:40:15;;;;;;;34.33;14.77;;;;;;;4.35;100.00;101631.72;5039493;28;20212;-77
2021/11/24 04:42:42;;;;;;;38.30;16.60;;;;;;;4.35;100.00;101621.41;5042207;28;20226;-76
2021/11/24 04:45:10;;;;;;;38.77;15.73;;;;;;;4.36;100.00;101629.16;5043037;28;20199;-79
2021/11/24 04:47:36;;;;;;;38.53;16.40;;;;;;;4.36;100.00;101630.84;5043097;28;20290;-79
2021/11/24 04:50:03;;;;;;;37.33;16.93;;;;;;;4.36;100.00;101628.28;5042526;28;20590;-78
2021/11/24 04:52:30;;;;;;;36.43;16.30;;;;;;;4.35;100.00;101623.97;5041058;28;20678;-79
2021/11/24 04:54:57;;;;;;;37.10;15.83;;;;;;;4.35;100.00;101624.84;5042848;28;20234;-79
2021/11/24 04:57:24;;;;;;;40.73;16.17;;;;;;;4.31;100.00;101628.22;5040119;28;20207;-78
2021/11/24 04:59:50;;;;;;;33.17;16.33;;;;;;;4.32;100.00;101626.50;5042380;28;20199;-78
2021/11/24 05:02:16;;;;;;;37.80;16.43;;;;;;;4.30;100.00;101621.31;5039463;28;20237;-78
2021/11/24 05:04:44;;;;;;;40.27;15.97;;;;;;;4.30;100.00;101623.88;5042818;28;20210;-78
2021/11/24 05:07:10;;;;;;;42.33;15.93;;;;;;;4.28;100.00;101625.59;5040343;28;20208;-78
2021/11/24 05:09:37;;;;;;;35.80;14.57;;;;;;;4.29;100.00;101621.28;5041874;28;20649;-76
2021/11/24 05:12:05;;;;;;;37.83;16.13;;;;;;;4.29;100.00;101622.16;5040354;28;20227;-77
2021/11/24 05:14:34;;;;;;;33.67;14.67;;;;;;;4.28;100.00;101616.97;5042212;28;20290;-77
2021/11/24 05:17:03;;;;;;;39.20;14.77;;;;;;;4.27;100.00;101618.66;5040250;28;20225;-77
2021/11/24 05:19:31;;;;;;;36.70;15.57;;;;;;;4.26;100.00;101614.38;5040721;28;20345;-78
2021/11/24 05:21:59;;;;;;;39.33;16.40;;;;;;;4.25;100.00;101609.19;5042054;28;20227;-79
2021/11/24 05:24:25;;;;;;;38.37;15.73;;;;;;;4.25;100.00;101609.19;5040058;28;20203;-79
2021/11/24 05:26:52;;;;;;;37.20;16.00;;;;;;;4.22;100.00;101617.75;5039843;28;20410;-79
2021/11/24 05:29:20;;;;;;;42.37;14.90;;;;;;;4.23;100.00;101613.47;5043130;28;20210;-79
2021/11/24 05:31:46;;;;;;;40.53;15.90;;;;;;;4.23;100.00;101619.47;5040029;28;20215;-79
2021/11/24 05:34:12;;;;;;;34.33;14.60;;;;;;;4.23;100.00;101627.22;5042773;28;20196;-79
2021/11/24 05:36:39;;;;;;;37.67;15.13;;;;;;;4.24;100.00;101622.91;5040757;28;20412;-79
2021/11/24 05:39:08;;;;;;;37.30;15.43;;;;;;;4.25;100.00;101622.09;5042911;28;20207;-79
2021/11/24 05:41:39;;;;;;;38.50;15.43;;;;;;;4.24;100.00;101622.91;5038754;28;20207;-76
2021/11/24 05:44:17;;;;;;;41.27;16.33;;;;;;;4.23;100.00;101614.31;5041130;28;20196;-79
2021/11/24 05:46:48;;;;;;;39.03;14.17;;;;;;;4.24;100.00;101622.91;5039433;28;21021;-79
2021/11/24 05:49:15;;;;;;;37.10;15.77;;;;;;;4.24;100.00;101620.34;5040125;28;20210;-79
2021/11/24 05:51:42;;;;;;;36.60;14.60;;;;;;;4.23;100.00;101624.66;5041292;28;20230;-79
2021/11/24 05:54:09;;;;;;;35.30;15.87;;;;;;;4.23;100.00;101616.91;5037899;28;20202;-78
2021/11/24 05:56:38;;;;;;;40.67;15.13;;;;;;;4.22;100.00;101614.28;5034045;28;20713;-79
2021/11/24 05:59:05;;;;;;;37.57;15.40;;;;;;;4.23;100.00;101624.66;5035426;28;20677;-78
2021/11/24 06:01:32;;;;;;;39.17;15.37;;;;;;;4.24;100.00;101616.06;5038540;28;20684;-79
2021/11/24 06:03:59;;;;;;;40.57;15.20;;;;;;;4.24;100.00;101628.97;5038293;28;20949;-78
2021/11/24 06:06:26;;;;;;;39.43;14.60;;;;;;;4.24;100.00;101634.13;5039220;28;20421;-79
2021/11/24 06:08:52;;;;;;;39.23;15.00;;;;;;;4.26;100.00;101629.88;5038992;28;20293;-77
2021/11/24 06:11:19;;;;;;;35.47;14.67;;;;;;;4.27;100.00;101622.97;5042216;28;20214;-77
2021/11/24 06:13:46;;;;;;;37.03;14.93;;;;;;;4.27;100.00;101630.72;5038557;28;20235;-77
2021/11/24 06:16:13;;;;;;;41.50;15.13;;;;;;;4.27;100.00;101625.56;5044405;28;20203;-77
2021/11/24 06:18:39;;;;;;;38.37;14.93;;;;;;;4.26;100.00;101632.44;5040413;28;20214;-77
2021/11/24 06:21:07;;;;;;;41.73;16.37;;;;;;;4.27;100.00;101626.41;5042466;28;20203;-77
2021/11/24 06:23:38;;;;;;;33.07;14.53;;;;;;;4.25;100.00;101628.13;5038623;28;22402;-77
2021/11/24 06:26:05;;;;;;;36.50;15.13;;;;;;;4.25;100.00;101625.53;5041420;28;20214;-76
2021/11/24 06:28:31;;;;;;;38.90;14.67;;;;;;;4.23;100.00;101634.09;5040487;28;20294;-77
2021/11/24 06:30:57;;;;;;;35.93;14.27;;;;;;;4.22;100.00;101632.34;5042704;28;20225;-77
2021/11/24 06:33:25;;;;;;;33.33;13.80;;;;;;;4.22;100.00;101635.84;5040828;28;20693;-77
2021/11/24 06:35:52;;;;;;;36.17;14.00;;;;;;;4.20;100.00;101634.06;5039000;28;20209;-77
2021/11/24 06:38:20;;;;;;;32.57;13.57;;;;;;;4.18;100.00;101634.88;5040793;28;20229;-77
2021/11/24 06:40:47;;;;;;;38.30;13.87;;;;;;;4.21;100.00;101628.06;5042716;28;20214;-77
2021/11/24 06:43:13;;;;;;;35.43;13.90;;;;;;;4.20;100.00;101641.78;5043810;28;21073;-77
2021/11/24 06:45:41;;;;;;;35.60;13.80;;;;;;;4.23;100.00;101634.09;5043495;28;20211;-77
2021/11/24 06:48:08;;;;;;;28.83;13.27;;;;;;;4.22;100.00;101637.53;5047059;28;20199;-77
2021/11/24 06:50:34;;;;;;;33.77;14.23;;;;;;;4.22;100.00;101634.94;5045054;28;20214;-77
2021/11/24 06:53:00;;;;;;;33.00;13.50;;;;;;;4.20;100.00;101637.50;5045835;28;20229;-77
2021/11/24 06:55:29;;;;;;;31.20;12.93;;;;;;;4.23;100.00;101640.13;5045075;28;20214;-77
2021/11/24 06:57:55;;;;;;;32.30;12.40;;;;;;;4.25;100.00;101633.28;5042386;28;20199;-78
2021/11/24 07:00:24;;;;;;;36.77;13.50;;;;;;;4.27;100.00;101641.91;5042958;28;20230;-78
2021/11/24 07:02:50;;;;;;;37.60;14.70;;;;;;;4.30;100.00;101630.78;5043535;28;20231;-77
2021/11/24 07:05:16;;;;;;;31.23;13.40;;;;;;;4.31;100.00;101633.38;5045512;28;20673;-77
2021/11/24 07:07:43;;;;;;;35.13;14.00;;;;;;;4.32;100.00;101627.38;5048038;28;20203;-77
2021/11/24 07:10:10;;;;;;;35.70;14.27;;;;;;;4.32;100.00;101627.38;5046341;28;20317;-77
2021/11/24 07:12:37;;;;;;;33.73;13.93;;;;;;;4.33;100.00;101633.41;5046149;28;20222;-77
2021/11/24 07:15:05;;;;;;;34.53;14.50;;;;;;;4.36;100.00;101633.44;5043182;28;20214;-77
2021/11/24 07:17:31;;;;;;;35.20;14.20;;;;;;;4.36;100.00;101636.03;5045762;28;20290;-77
2021/11/24 07:20:00;;;;;;;36.83;14.23;;;;;;;4.36;100.00;101641.19;5043614;28;20289;-77
2021/11/24 07:22:27;;;;;;;34.93;14.23;;;;;;;4.39;100.00;101642.97;5044989;28;20226;-77
2021/11/24 07:24:53;;;;;;;30.33;13.07;;;;;;;4.41;100.00;101642.13;5045880;28;20214;-78
2021/11/24 07:27:20;;;;;;;32.40;14.63;;;;;;;4.42;100.00;101638.72;5046193;28;20577;-76
2021/11/24 07:29:47;;;;;;;36.13;14.17;;;;;;;4.45;100.00;101641.34;5044927;28;20207;-77
2021/11/24 07:32:14;;;;;;;35.57;13.90;;;;;;;4.46;100.00;101644.78;5045866;28;20233;-77
2021/11/24 07:34:40;;;;;;;33.53;14.50;;;;;;;4.48;100.00;101645.69;5042272;28;20210;-77
2021/11/24 07:37:07;;;;;;;36.53;13.40;;;;;;;4.50;100.00;101646.56;5041493;28;20783;-77
2021/11/24 07:39:33;;;;;;;32.77;13.13;;;;;;;4.51;100.00;101638.84;5045068;28;20304;-77
2021/11/24 07:42:00;;;;;;;34.97;13.53;;;;;;;4.54;100.00;101645.78;5041574;28;20721;-77
2021/11/24 07:44:27;;;;;;;32.93;13.20;;;;;;;4.57;100.00;101640.66;5047103;28;20967;-77
2021/11/24 07:46:55;;;;;;;31.90;13.47;;;;;;;4.58;100.00;101636.38;5044769;28;20224;-78
2021/11/24 07:49:21;;;;;;;29.53;12.83;;;;;;;4.57;100.00;101627.72;5042960;28;20792;-77
2021/11/24 07:51:48;;;;;;;34.10;13.60;;;;;;;4.57;100.00;101637.19;5027392;28;20231;-77
2021/11/24 07:54:14;;;;;;;32.93;12.43;;;;;;;4.59;100.00;101633.81;5046089;28;20598;-77
2021/11/24 07:56:41;;;;;;;32.60;12.73;;;;;;;4.63;100.00;101633.00;5044636;28;20779;-77
2021/11/24 07:59:07;;;;;;;27.63;12.90;;;;;;;4.65;100.00;101635.63;5045454;28;20573;-77
2021/11/24 08:01:34;;;;;;;29.57;12.27;;;;;;;4.67;100.00;101634.78;5042275;28;20624;-77
2021/11/24 08:04:01;;;;;;;27.37;12.50;;;;;;;4.70;100.00;101631.38;5044250;28;20195;-77
2021/11/24 08:06:28;;;;;;;33.20;12.83;;;;;;;4.74;100.00;101626.25;5041566;28;20217;-77
2021/11/24 08:08:54;;;;;;;32.37;12.80;;;;;;;4.75;100.00;101632.31;5043727;28;20235;-77
2021/11/24 08:11:21;;;;;;;24.27;12.13;;;;;;;4.74;100.00;101630.56;5042228;28;20203;-77
2021/11/24 08:13:47;;;;;;;29.47;12.30;;;;;;;4.74;100.00;101636.59;5045595;28;20219;-77
2021/11/24 08:16:13;;;;;;;32.03;12.67;;;;;;;4.80;100.00;101633.25;5041909;28;20581;-77
2021/11/24 08:18:40;;;;;;;32.07;13.17;;;;;;;4.83;100.00;101622.06;5040107;28;20210;-77
2021/11/24 08:21:08;;;;;;;30.63;14.27;;;;;;;4.91;100.00;101617.88;5044398;28;20605;-77
2021/11/24 08:23:34;;;;;;;30.83;13.30;;;;;;;4.92;100.00;101620.50;5042110;28;20230;-78
2021/11/24 08:26:01;;;;;;;30.03;11.73;;;;;;;4.96;100.00;101623.09;5041982;28;20207;-77
2021/11/24 08:28:27;;;;;;;31.37;14.57;;;;;;;5.01;100.00;101619.72;5044744;28;20203;-77
2021/11/24 08:30:53;;;;;;;26.63;11.80;;;;;;;5.00;100.00;101617.13;5044496;28;21596;-77
2021/11/24 08:33:20;;;;;;;30.53;12.57;;;;;;;5.01;100.00;101621.44;5044099;28;20233;-77
2021/11/24 08:35:48;;;;;;;27.53;11.27;;;;;;;5.00;100.00;101615.41;5043043;28;20202;-77
2021/11/24 08:38:16;;;;;;;25.10;11.47;;;;;;;5.00;100.00;101618.00;5043387;28;20644;-77
2021/11/24 08:40:42;;;;;;;23.97;11.67;;;;;;;5.01;100.00;101616.28;5042354;28;20527;-77
2021/11/24 08:43:09;;;;;;;26.43;11.40;;;;;;;5.02;100.00;101610.25;5040521;28;20223;-77
2021/11/24 08:45:36;;;;;;;24.40;12.03;;;;;;;5.02;100.00;101618.03;5043668;28;20996;-76
2021/11/24 08:48:04;;;;;;;19.43;9.97;;;;;;;5.03;100.00;101611.97;5041717;28;20203;-77
2021/11/24 08:50:31;;;;;;;25.50;10.83;;;;;;;5.09;100.00;101620.69;5043416;28;20905;-77
2021/11/24 08:52:57;;;;;;;25.03;11.10;;;;;;;5.16;100.00;101613.03;5042574;28;20629;-77
2021/11/24 08:55:25;;;;;;;24.17;11.77;;;;;;;5.16;100.00;101619.06;5044509;28;20207;-77
2021/11/24 08:57:51;;;;;;;24.23;11.10;;;;;;;5.17;100.00;101615.63;5043902;28;20290;-77
2021/11/24 09:00:21;;;;;;;23.50;10.83;;;;;;;5.12;100.00;101618.16;5041875;28;20199;-77
2021/11/24 09:02:50;;;;;;;23.50;10.37;;;;;;;5.16;100.00;101610.44;5039176;28;20223;-77
2021/11/24 09:05:17;;;;;;;27.07;11.53;;;;;;;5.24;100.00;101612.25;5044280;28;20652;-77
2021/11/24 09:07:44;;;;;;;24.57;10.23;;;;;;;5.34;100.00;101609.78;5041287;28;20211;-77
2021/11/24 09:10:11;;;;;;;23.53;11.67;;;;;;;5.41;100.00;101609.84;5044273;28;20217;-78
2021/11/24 09:12:39;;;;;;;27.17;11.90;;;;;;;5.40;100.00;101605.53;5025983;28;20226;-77
2021/11/24 09:15:06;;;;;;;22.53;9.80;;;;;;;5.39;100.00;101608.09;5042911;28;20214;-77
2021/11/24 09:17:33;;;;;;;24.07;11.30;;;;;;;5.36;100.00;101611.50;5041031;28;20211;-77
2021/11/24 09:19:59;;;;;;;20.07;9.57;;;;;;;5.35;100.00;101609.78;5043448;28;20203;-77
2021/11/24 09:22:25;;;;;;;25.00;9.93;;;;;;;5.41;100.00;101612.44;5039668;28;20604;-77
2021/11/24 09:24:54;;;;;;;25.00;10.60;;;;;;;5.48;100.00;101606.47;5044268;28;20783;-77
2021/11/24 09:27:29;;;;;;;22.20;10.77;;;;;;;5.60;100.00;101603.16;5039877;28;20195;-77
2021/11/24 09:29:57;;;;;;;23.87;11.63;;;;;;;5.65;100.00;101600.63;5043095;28;20205;-76
2021/11/24 09:32:23;;;;;;;20.67;9.83;;;;;;;5.69;100.00;101602.38;5044958;28;20693;-76
2021/11/24 09:34:50;;;;;;;27.00;11.53;;;;;;;5.80;100.00;101599.88;5040425;28;20207;-78
2021/11/24 09:37:16;;;;;;;22.60;10.47;;;;;;;5.86;100.00;101602.53;5042005;28;20199;-77
2021/11/24 09:39:43;;;;;;;20.43;10.63;;;;;;;5.91;100.00;101594.81;5041289;28;20219;-77
2021/11/24 09:42:11;;;;;;;20.90;9.97;;;;;;;5.84;100.00;101588.69;5040646;28;20358;-78
2021/11/24 09:44:39;;;;;;;20.90;10.47;;;;;;;5.88;100.00;101593.94;5041021;28;20211;-77
2021/11/24 09:47:08;;;;;;;18.43;9.03;;;;;;;5.91;100.00;101597.38;5043336;28;20219;-77
2021/11/24 09:49:36;;;;;;;17.47;8.80;;;;;;;5.94;100.00;101587.94;5039267;28;20211;-77
2021/11/24 09:52:05;;;;;;;17.87;9.37;;;;;;;5.98;100.00;101594.03;5042765;28;20227;-77
2021/11/24 09:54:32;;;;;;;18.37;8.27;;;;;;;5.94;100.00;101590.50;5039489;28;20223;-77
2021/11/24 09:56:59;;;;;;;16.27;8.53;;;;;;;5.94;100.00;101580.16;5043560;28;20196;-77
2021/11/24 09:59:25;;;;;;;15.00;7.83;;;;;;;5.94;100.00;101581.88;5039452;28;20208;-77
2021/11/24 10:01:51;;;;;;;14.00;7.53;;;;;;;5.93;100.00;101575.84;5043794;28;20237;-76
2021/11/24 10:04:20;;;;;;;15.70;7.23;;;;;;;5.97;100.00;101577.63;5040356;28;20689;-77
2021/11/24 10:06:47;;;;;;;14.27;7.70;;;;;;;6.03;100.00;101576.81;5042080;28;20404;-77
2021/11/24 10:09:13;;;;;;;13.73;7.60;;;;;;;6.05;100.00;101570.81;5040209;28;20237;-77
2021/11/24 10:11:40;;;;;;;14.13;6.80;;;;;;;6.07;100.00;101571.69;5041303;28;20212;-77
2021/11/24 10:14:06;;;;;;;12.73;7.20;;;;;;;6.08;100.00;101567.34;5037856;28;20318;-77
2021/11/24 10:16:35;;;;;;;13.63;7.30;;;;;;;6.05;100.00;101575.09;5042792;28;20210;-77
2021/11/24 10:19:04;;;;;;;15.60;8.80;;;;;;;6.07;100.00;101570.81;5040841;28;20199;-77
2021/11/24 10:21:33;;;;;;;14.00;7.93;;;;;;;6.02;100.00;101562.16;5036471;28;20219;-77
2021/11/24 10:24:02;;;;;;;13.90;8.17;;;;;;;6.02;100.00;101572.50;5040250;28;20657;-77
2021/11/24 10:26:32;;;;;;;14.17;7.20;;;;;;;6.07;100.00;101561.31;5040925;28;20211;-77
2021/11/24 10:29:00;;;;;;;13.63;7.17;;;;;;;6.14;100.00;101558.75;5039586;28;20630;-77
2021/11/24 10:31:33;;;;;;;18.87;10.23;;;;;;;6.16;100.00;101557.06;5040295;28;20257;-77
2021/11/24 10:34:01;;;;;;;16.00;9.50;;;;;;;6.21;100.00;101556.25;5042409;28;20229;-77
2021/11/24 10:36:28;;;;;;;15.43;9.07;;;;;;;6.21;100.00;101551.06;5038200;28;20609;-77
2021/11/24 10:38:56;;;;;;;14.87;7.43;;;;;;;6.27;100.00;101549.38;5040647;28;20215;-77
2021/11/24 10:41:35;;;;;;;15.97;8.50;;;;;;;6.32;100.00;101540.78;5038720;28;20230;-77
2021/11/24 10:44:03;;;;;;;13.83;7.63;;;;;;;6.34;100.00;101533.00;5042142;28;20610;-77
2021/11/24 10:46:30;;;;;;;14.13;7.03;;;;;;;6.32;100.00;101530.41;5040551;28;20210;-77
2021/11/24 10:49:00;;;;;;;14.43;7.27;;;;;;;6.27;100.00;101539.00;5040146;28;20206;-77
2021/11/24 10:51:34;;;;;;;13.90;7.53;;;;;;;6.19;100.00;101531.19;5037890;28;20225;-77
2021/11/24 10:54:11;;;;;;;12.10;6.80;;;;;;;6.10;100.00;101531.97;5041426;28;20601;-77
2021/11/24 10:57:04;;;;;;;11.73;6.70;;;;;;;5.96;100.00;101529.31;5038416;28;20213;-77
2021/11/24 10:59:32;;;;;;;11.13;6.10;;;;;;;5.86;100.00;101530.94;5037430;28;20596;-77
2021/11/24 11:02:27;;;;;;;12.80;7.10;;;;;;;5.80;100.00;101528.28;5039236;28;20594;-77
2021/11/24 11:05:00;;;;;;;18.43;9.60;;;;;;;5.73;100.00;101529.09;5039331;28;20901;-78
2021/11/24 11:07:28;;;;;;;16.20;9.63;;;;;;;5.69;100.00;101525.59;5043683;28;20665;-78
2021/11/24 11:10:17;;;;;;;20.53;11.00;;;;;;;5.62;100.00;101523.81;5040464;28;20265;-78